Dvorska, Czech Republic

11:45 PM CEST on June 24, 2017 (GMT +0200)
Turany | | Change Station

Elev 807 ft 49.15 °N, 16.70 °E | Updated 15 minutes ago

Clear
Clear
72 °F
Feels Like 72 °F
N
2
Wind Variable Wind from Variable

Today
High -- | Low -- °F
--% Chance of Precip.
Yesterday
High -- | Low -- °F
Precip. -- in
Pressure 29.92 in
Visibility -9999.0 miles
Clouds
Dew Point 50 °F
Humidity 46%
Rainfall 0.00 in
Snow Depth Not available.
4:49 AM 9:02 PM
New Moon, 1% visible
METAR LKTB 242130Z VRB02KT CAVOK 22/10 Q1013 NOSIG
Pressure 29.92 in
Visibility -9999.0 miles
Clouds
Dew Point 50 °F
Humidity 46%
Rainfall 0.00 in
Snow Depth Not available.
4:49 AM 9:02 PM
New Moon, 1% visible
METAR LKTB 242130Z VRB02KT CAVOK 22/10 Q1013 NOSIG

Get Severe Weather Alerts

Thanks for signing up!

Be on the lookout for a verification email in your inbox.

You'll start receiving the daily forecast at 6 AM.

×

10-Day Weather Forecast

×

Almanac

Astronomy

Jun. 24, 2017 Rise Set
Actual Time
Civil Twilight
Nautical Twilight
Astronomical Twilight
Moon
Length of Visible Light
Length of Day
Tomorrow will be .
, % of the Moon is Illuminated

Today's Extremes

Country Highs Country Lows

Community

WunderPhotos

Category 6

Welcome to Category 6. This is the collective home for Weather Underground's featured writeups by Dr. Jeff Masters (right), Bob Henson (left), Chris Burt, and other regular contributors.

Nearby

Air Quality

  Air Quality AQ Index Pollutant
Not available.

Snow Depth

Station Depth Elevation

Earthquake Activity

City Distance Mag. Time & Date
Minimum magnitude displayed is 2.5.

Coastal Water Temperatures

Place Temperature

Stations

Nearby Weather Stations

Station Location Temp. Windchill Dew Point Humidity Wind Precip. Elev Updated Type